sensor_id;sensor_type;location;lat;lon;timestamp;pressure;altitude;pressure_sealevel;temperature;humidity
75146;BME280;63641;46.526;24.612;2023-07-31T00:01:21;96810.78;;;19.66;74.41
75146;BME280;63641;46.526;24.612;2023-07-31T00:03:49;96802.56;;;19.66;74.24
75146;BME280;63641;46.526;24.612;2023-07-31T00:06:16;96793.41;;;19.62;74.42
75146;BME280;63641;46.526;24.612;2023-07-31T00:08:43;96763.50;;;19.41;74.46
75146;BME280;63641;46.526;24.612;2023-07-31T00:11:09;96756.38;;;19.40;74.57
75146;BME280;63641;46.526;24.612;2023-07-31T00:13:37;96783.31;;;19.50;74.44
75146;BME280;63641;46.526;24.612;2023-07-31T00:16:03;96801.53;;;19.58;74.58
75146;BME280;63641;46.526;24.612;2023-07-31T00:18:30;96736.72;;;19.22;74.74
75146;BME280;63641;46.526;24.612;2023-07-31T00:20:57;96775.25;;;19.41;74.70
75146;BME280;63641;46.526;24.612;2023-07-31T00:23:24;96738.06;;;19.28;74.83
75146;BME280;63641;46.526;24.612;2023-07-31T00:25:51;96782.16;;;19.51;74.95
75146;BME280;63641;46.526;24.612;2023-07-31T00:28:18;96751.53;;;19.33;75.05
75146;BME280;63641;46.526;24.612;2023-07-31T00:30:45;96775.63;;;19.55;74.94
75146;BME280;63641;46.526;24.612;2023-07-31T00:33:11;96773.91;;;19.51;74.65
75146;BME280;63641;46.526;24.612;2023-07-31T00:35:38;96785.00;;;19.54;74.71
75146;BME280;63641;46.526;24.612;2023-07-31T00:38:05;96751.97;;;19.35;75.22
75146;BME280;63641;46.526;24.612;2023-07-31T00:40:36;96757.91;;;19.37;75.04
75146;BME280;63641;46.526;24.612;2023-07-31T00:43:04;96759.13;;;19.40;75.30
75146;BME280;63641;46.526;24.612;2023-07-31T00:45:31;96763.50;;;19.41;75.41
75146;BME280;63641;46.526;24.612;2023-07-31T00:47:59;96776.22;;;19.49;75.54
75146;BME280;63641;46.526;24.612;2023-07-31T00:50:26;96772.25;;;19.46;75.49
75146;BME280;63641;46.526;24.612;2023-07-31T00:52:54;96782.31;;;19.42;75.42
75146;BME280;63641;46.526;24.612;2023-07-31T00:55:21;96728.31;;;19.15;75.67
75146;BME280;63641;46.526;24.612;2023-07-31T00:57:49;96763.31;;;19.34;75.75
75146;BME280;63641;46.526;24.612;2023-07-31T01:00:17;96741.88;;;19.23;75.81
75146;BME280;63641;46.526;24.612;2023-07-31T01:02:44;96761.69;;;19.33;75.85
75146;BME280;63641;46.526;24.612;2023-07-31T01:05:11;96766.56;;;19.39;75.93
75146;BME280;63641;46.526;24.612;2023-07-31T01:07:42;96763.50;;;19.41;75.79
75146;BME280;63641;46.526;24.612;2023-07-31T01:10:16;96775.69;;;19.43;75.74
75146;BME280;63641;46.526;24.612;2023-07-31T01:12:48;96762.25;;;19.38;75.85
75146;BME280;63641;46.526;24.612;2023-07-31T01:15:15;96717.69;;;19.13;75.73
75146;BME280;63641;46.526;24.612;2023-07-31T01:17:44;96716.88;;;18.97;75.85
75146;BME280;63641;46.526;24.612;2023-07-31T01:20:14;96764.97;;;19.38;75.88
75146;BME280;63641;46.526;24.612;2023-07-31T01:23:21;96764.63;;;19.40;75.75
75146;BME280;63641;46.526;24.612;2023-07-31T01:26:12;96776.38;;;19.40;75.58
75146;BME280;63641;46.526;24.612;2023-07-31T01:28:45;96772.06;;;19.39;75.55
75146;BME280;63641;46.526;24.612;2023-07-31T01:31:22;96770.28;;;19.31;75.57
75146;BME280;63641;46.526;24.612;2023-07-31T01:33:50;96772.31;;;19.34;75.59
75146;BME280;63641;46.526;24.612;2023-07-31T01:36:19;96767.16;;;19.33;75.46
75146;BME280;63641;46.526;24.612;2023-07-31T01:38:46;96770.91;;;19.40;75.76
75146;BME280;63641;46.526;24.612;2023-07-31T01:41:13;96754.09;;;19.26;75.59
75146;BME280;63641;46.526;24.612;2023-07-31T01:43:40;96763.22;;;19.30;75.71
75146;BME280;63641;46.526;24.612;2023-07-31T01:46:07;96756.28;;;19.20;75.61
75146;BME280;63641;46.526;24.612;2023-07-31T01:48:34;96734.94;;;19.14;75.52
75146;BME280;63641;46.526;24.612;2023-07-31T01:51:03;96774.78;;;19.39;75.74
75146;BME280;63641;46.526;24.612;2023-07-31T01:53:31;96759.22;;;19.27;75.58
75146;BME280;63641;46.526;24.612;2023-07-31T01:55:58;96769.50;;;19.30;75.61
75146;BME280;63641;46.526;24.612;2023-07-31T01:58:25;96781.06;;;19.40;75.80
75146;BME280;63641;46.526;24.612;2023-07-31T02:00:52;96754.31;;;19.21;75.57
75146;BME280;63641;46.526;24.612;2023-07-31T02:03:19;96783.72;;;19.36;75.94
75146;BME280;63641;46.526;24.612;2023-07-31T02:05:49;96748.47;;;19.06;75.96
75146;BME280;63641;46.526;24.612;2023-07-31T02:08:16;96756.88;;;19.14;75.83
75146;BME280;63641;46.526;24.612;2023-07-31T02:10:43;96767.63;;;19.19;75.85
75146;BME280;63641;46.526;24.612;2023-07-31T02:13:10;96785.06;;;19.26;76.03
75146;BME280;63641;46.526;24.612;2023-07-31T02:15:37;96785.69;;;19.36;75.88
75146;BME280;63641;46.526;24.612;2023-07-31T02:18:04;96794.28;;;19.34;76.05
75146;BME280;63641;46.526;24.612;2023-07-31T02:20:34;96798.69;;;19.39;76.07
75146;BME280;63641;46.526;24.612;2023-07-31T02:23:02;96796.56;;;19.32;76.04
75146;BME280;63641;46.526;24.612;2023-07-31T02:25:29;96756.25;;;19.04;75.96
75146;BME280;63641;46.526;24.612;2023-07-31T02:27:56;96778.78;;;19.26;76.08
75146;BME280;63641;46.526;24.612;2023-07-31T02:30:22;96771.75;;;19.13;76.11
75146;BME280;63641;46.526;24.612;2023-07-31T02:32:49;96784.06;;;19.19;75.99
75146;BME280;63641;46.526;24.612;2023-07-31T02:35:16;96800.19;;;19.36;76.06
75146;BME280;63641;46.526;24.612;2023-07-31T02:37:45;96804.09;;;19.35;76.08
75146;BME280;63641;46.526;24.612;2023-07-31T02:40:12;96798.97;;;19.34;76.08
75146;BME280;63641;46.526;24.612;2023-07-31T02:42:39;96810.25;;;19.32;76.18
75146;BME280;63641;46.526;24.612;2023-07-31T02:45:06;96792.50;;;19.26;76.12
75146;BME280;63641;46.526;24.612;2023-07-31T02:47:33;96807.97;;;19.34;76.24
75146;BME280;63641;46.526;24.612;2023-07-31T02:50:01;96810.81;;;19.38;76.32
75146;BME280;63641;46.526;24.612;2023-07-31T02:52:28;96791.22;;;19.23;76.30
75146;BME280;63641;46.526;24.612;2023-07-31T02:54:55;96813.72;;;19.29;76.58
75146;BME280;63641;46.526;24.612;2023-07-31T02:57:22;96795.63;;;19.12;76.81
75146;BME280;63641;46.526;24.612;2023-07-31T02:59:48;96815.34;;;19.18;76.95
75146;BME280;63641;46.526;24.612;2023-07-31T03:02:15;96811.38;;;19.15;76.74
75146;BME280;63641;46.526;24.612;2023-07-31T03:04:42;96807.94;;;19.18;76.98
75146;BME280;63641;46.526;24.612;2023-07-31T03:07:09;96814.94;;;19.16;77.36
75146;BME280;63641;46.526;24.612;2023-07-31T03:09:36;96823.59;;;19.18;76.91
75146;BME280;63641;46.526;24.612;2023-07-31T03:12:03;96827.22;;;19.22;76.92
75146;BME280;63641;46.526;24.612;2023-07-31T03:14:30;96817.50;;;19.24;76.80
75146;BME280;63641;46.526;24.612;2023-07-31T03:16:57;96826.19;;;19.26;76.63
75146;BME280;63641;46.526;24.612;2023-07-31T03:19:23;96807.13;;;19.18;76.84
75146;BME280;63641;46.526;24.612;2023-07-31T03:21:52;96773.47;;;18.89;76.70
75146;BME280;63641;46.526;24.612;2023-07-31T03:24:19;96817.41;;;19.21;76.89
75146;BME280;63641;46.526;24.612;2023-07-31T03:26:46;96800.44;;;19.03;76.84
75146;BME280;63641;46.526;24.612;2023-07-31T03:29:13;96824.03;;;19.20;76.84
75146;BME280;63641;46.526;24.612;2023-07-31T03:31:39;96823.16;;;19.16;77.05
75146;BME280;63641;46.526;24.612;2023-07-31T03:34:06;96791.22;;;18.95;76.65
75146;BME280;63641;46.526;24.612;2023-07-31T03:36:33;96819.81;;;19.22;76.82
75146;BME280;63641;46.526;24.612;2023-07-31T03:39:00;96831.31;;;19.28;76.61
75146;BME280;63641;46.526;24.612;2023-07-31T03:41:27;96825.41;;;19.26;76.68
75146;BME280;63641;46.526;24.612;2023-07-31T03:43:54;96814.75;;;19.24;76.62
75146;BME280;63641;46.526;24.612;2023-07-31T03:46:23;96825.34;;;19.38;76.67
75146;BME280;63641;46.526;24.612;2023-07-31T03:48:51;96832.88;;;19.41;76.67
75146;BME280;63641;46.526;24.612;2023-07-31T03:51:17;96826.13;;;19.39;76.43
75146;BME280;63641;46.526;24.612;2023-07-31T03:53:45;96799.38;;;19.20;76.42
75146;BME280;63641;46.526;24.612;2023-07-31T03:56:11;96822.13;;;19.36;76.17
75146;BME280;63641;46.526;24.612;2023-07-31T03:58:38;96798.91;;;19.18;76.49
75146;BME280;63641;46.526;24.612;2023-07-31T04:01:05;96836.50;;;19.45;76.24
75146;BME280;63641;46.526;24.612;2023-07-31T04:03:32;96800.72;;;19.26;76.18
75146;BME280;63641;46.526;24.612;2023-07-31T04:05:59;96794.41;;;19.25;76.20
75146;BME280;63641;46.526;24.612;2023-07-31T04:08:26;96823.03;;;19.40;76.15
75146;BME280;63641;46.526;24.612;2023-07-31T04:10:53;96817.44;;;19.37;76.21
75146;BME280;63641;46.526;24.612;2023-07-31T04:13:22;96816.03;;;19.27;76.35
75146;BME280;63641;46.526;24.612;2023-07-31T04:15:49;96827.53;;;19.33;76.32
75146;BME280;63641;46.526;24.612;2023-07-31T04:18:17;96815.91;;;19.23;76.49
75146;BME280;63641;46.526;24.612;2023-07-31T04:20:44;96832.22;;;19.32;76.24
75146;BME280;63641;46.526;24.612;2023-07-31T04:23:11;96826.72;;;19.32;76.13
75146;BME280;63641;46.526;24.612;2023-07-31T04:25:38;96827.88;;;19.31;76.17
75146;BME280;63641;46.526;24.612;2023-07-31T04:28:05;96815.66;;;19.28;75.96
75146;BME280;63641;46.526;24.612;2023-07-31T04:30:32;96835.66;;;19.29;76.01
75146;BME280;63641;46.526;24.612;2023-07-31T04:32:59;96809.53;;;19.19;75.83
75146;BME280;63641;46.526;24.612;2023-07-31T04:35:27;96814.75;;;19.24;75.86
75146;BME280;63641;46.526;24.612;2023-07-31T04:37:54;96799.63;;;19.15;75.94
75146;BME280;63641;46.526;24.612;2023-07-31T04:40:21;96828.41;;;19.37;75.75
75146;BME280;63641;46.526;24.612;2023-07-31T04:42:48;96792.53;;;19.14;75.97
75146;BME280;63641;46.526;24.612;2023-07-31T04:45:15;96850.28;;;19.33;75.85
75146;BME280;63641;46.526;24.612;2023-07-31T04:47:42;96812.09;;;19.12;75.68
75146;BME280;63641;46.526;24.612;2023-07-31T04:50:09;96830.03;;;19.10;75.97
75146;BME280;63641;46.526;24.612;2023-07-31T04:52:36;96862.84;;;19.34;75.87
75146;BME280;63641;46.526;24.612;2023-07-31T04:55:03;96842.44;;;19.19;76.00
75146;BME280;63641;46.526;24.612;2023-07-31T04:57:30;96857.84;;;19.24;76.46
75146;BME280;63641;46.526;24.612;2023-07-31T04:59:57;96852.44;;;19.12;76.21
75146;BME280;63641;46.526;24.612;2023-07-31T05:02:23;96866.25;;;19.15;76.73
75146;BME280;63641;46.526;24.612;2023-07-31T05:04:51;96864.63;;;19.14;76.66
75146;BME280;63641;46.526;24.612;2023-07-31T05:07:17;96839.19;;;19.01;76.72
75146;BME280;63641;46.526;24.612;2023-07-31T05:09:44;96838.41;;;19.01;76.51
75146;BME280;63641;46.526;24.612;2023-07-31T05:12:13;96852.53;;;19.15;76.66
75146;BME280;63641;46.526;24.612;2023-07-31T05:14:40;96838.63;;;19.08;76.51
75146;BME280;63641;46.526;24.612;2023-07-31T05:17:06;96830.03;;;19.10;76.19
75146;BME280;63641;46.526;24.612;2023-07-31T05:19:33;96856.00;;;19.28;76.17
75146;BME280;63641;46.526;24.612;2023-07-31T05:22:00;96864.91;;;19.37;76.08
75146;BME280;63641;46.526;24.612;2023-07-31T05:24:27;96830.72;;;19.06;76.17
75146;BME280;63641;46.526;24.612;2023-07-31T05:26:53;96853.03;;;19.33;75.95
75146;BME280;63641;46.526;24.612;2023-07-31T05:29:20;96819.84;;;19.10;75.83
75146;BME280;63641;46.526;24.612;2023-07-31T05:31:50;96842.66;;;19.26;75.76
75146;BME280;63641;46.526;24.612;2023-07-31T05:34:17;96839.56;;;19.28;75.75
75146;BME280;63641;46.526;24.612;2023-07-31T05:36:44;96851.97;;;19.38;75.76
75146;BME280;63641;46.526;24.612;2023-07-31T05:39:10;96876.44;;;19.59;75.54
75146;BME280;63641;46.526;24.612;2023-07-31T05:41:37;96888.66;;;19.61;75.55
75146;BME280;63641;46.526;24.612;2023-07-31T05:44:04;96863.69;;;19.50;75.43
75146;BME280;63641;46.526;24.612;2023-07-31T05:46:31;96880.00;;;19.59;75.45
75146;BME280;63641;46.526;24.612;2023-07-31T05:48:58;96866.41;;;19.50;75.54
75146;BME280;63641;46.526;24.612;2023-07-31T05:51:27;96882.06;;;19.62;75.30
75146;BME280;63641;46.526;24.612;2023-07-31T05:53:54;96867.56;;;19.49;75.54
75146;BME280;63641;46.526;24.612;2023-07-31T05:56:21;96848.47;;;19.53;75.19
75146;BME280;63641;46.526;24.612;2023-07-31T05:58:48;96877.13;;;19.68;74.93
75146;BME280;63641;46.526;24.612;2023-07-31T06:01:16;96859.16;;;19.70;74.93
75146;BME280;63641;46.526;24.612;2023-07-31T06:03:43;96879.97;;;19.87;75.08
75146;BME280;63641;46.526;24.612;2023-07-31T06:06:11;96877.41;;;19.94;74.81
75146;BME280;63641;46.526;24.612;2023-07-31T06:08:37;96861.47;;;19.84;75.01
75146;BME280;63641;46.526;24.612;2023-07-31T06:11:04;96873.09;;;19.93;74.90
75146;BME280;63641;46.526;24.612;2023-07-31T06:13:31;96862.09;;;19.93;74.76
75146;BME280;63641;46.526;24.612;2023-07-31T06:15:57;96876.44;;;20.02;74.67
75146;BME280;63641;46.526;24.612;2023-07-31T06:18:25;96886.13;;;20.12;74.52
75146;BME280;63641;46.526;24.612;2023-07-31T06:20:52;96873.97;;;19.97;74.38
75146;BME280;63641;46.526;24.612;2023-07-31T06:23:20;96850.47;;;19.84;74.15
75146;BME280;63641;46.526;24.612;2023-07-31T06:25:47;96887.78;;;20.17;74.24
75146;BME280;63641;46.526;24.612;2023-07-31T06:28:14;96882.75;;;20.19;74.21
75146;BME280;63641;46.526;24.612;2023-07-31T06:30:41;96831.25;;;19.84;74.37
75146;BME280;63641;46.526;24.612;2023-07-31T06:33:08;96850.31;;;20.09;74.06
75146;BME280;63641;46.526;24.612;2023-07-31T06:35:35;96869.03;;;20.19;74.10
75146;BME280;63641;46.526;24.612;2023-07-31T06:38:02;96863.69;;;20.26;74.34
75146;BME280;63641;46.526;24.612;2023-07-31T06:40:29;96869.88;;;20.39;73.97
75146;BME280;63641;46.526;24.612;2023-07-31T06:42:56;96877.41;;;20.42;73.72
75146;BME280;63641;46.526;24.612;2023-07-31T06:45:23;96875.66;;;20.49;73.89
75146;BME280;63641;46.526;24.612;2023-07-31T06:47:50;96868.28;;;20.54;73.35
75146;BME280;63641;46.526;24.612;2023-07-31T06:50:17;96879.47;;;20.61;73.29
75146;BME280;63641;46.526;24.612;2023-07-31T06:52:44;96876.63;;;20.73;73.06
75146;BME280;63641;46.526;24.612;2023-07-31T06:55:21;96880.81;;;20.86;72.77
75146;BME280;63641;46.526;24.612;2023-07-31T06:57:53;96883.31;;;20.91;72.43
75146;BME280;63641;46.526;24.612;2023-07-31T07:00:21;96884.59;;;20.97;72.12
75146;BME280;63641;46.526;24.612;2023-07-31T07:02:48;96883.88;;;21.01;72.13
75146;BME280;63641;46.526;24.612;2023-07-31T07:05:17;96888.31;;;21.05;71.87
75146;BME280;63641;46.526;24.612;2023-07-31T07:07:44;96866.94;;;20.98;71.96
75146;BME280;63641;46.526;24.612;2023-07-31T07:10:11;96871.72;;;21.02;71.47
75146;BME280;63641;46.526;24.612;2023-07-31T07:12:38;96850.50;;;21.02;70.88
75146;BME280;63641;46.526;24.612;2023-07-31T07:15:05;96882.53;;;21.30;70.81
75146;BME280;63641;46.526;24.612;2023-07-31T07:17:32;96888.94;;;21.34;70.77
75146;BME280;63641;46.526;24.612;2023-07-31T07:19:59;96889.47;;;21.39;70.80
75146;BME280;63641;46.526;24.612;2023-07-31T07:22:26;96885.47;;;21.37;70.66
75146;BME280;63641;46.526;24.612;2023-07-31T07:24:54;96875.47;;;21.48;70.53
75146;BME280;63641;46.526;24.612;2023-07-31T07:27:20;96860.47;;;21.45;70.51
75146;BME280;63641;46.526;24.612;2023-07-31T07:29:50;96876.28;;;21.71;69.68
75146;BME280;63641;46.526;24.612;2023-07-31T07:32:18;96873.25;;;21.77;69.28
75146;BME280;63641;46.526;24.612;2023-07-31T07:34:45;96891.91;;;22.06;69.23
75146;BME280;63641;46.526;24.612;2023-07-31T07:37:11;96886.94;;;22.15;68.53
75146;BME280;63641;46.526;24.612;2023-07-31T07:39:38;96889.88;;;22.26;68.16
75146;BME280;63641;46.526;24.612;2023-07-31T07:42:05;96888.59;;;22.20;68.04
75146;BME280;63641;46.526;24.612;2023-07-31T07:44:32;96885.72;;;22.13;67.97
75146;BME280;63641;46.526;24.612;2023-07-31T07:46:58;96906.38;;;22.23;68.14
75146;BME280;63641;46.526;24.612;2023-07-31T07:49:25;96902.31;;;22.16;68.24
75146;BME280;63641;46.526;24.612;2023-07-31T07:51:52;96894.22;;;22.04;68.15
75146;BME280;63641;46.526;24.612;2023-07-31T07:54:19;96883.53;;;21.80;68.39
75146;BME280;63641;46.526;24.612;2023-07-31T07:56:52;96900.63;;;21.89;69.00
75146;BME280;63641;46.526;24.612;2023-07-31T07:59:19;96887.31;;;21.71;69.19
75146;BME280;63641;46.526;24.612;2023-07-31T08:01:45;96915.78;;;21.79;69.54
75146;BME280;63641;46.526;24.612;2023-07-31T08:04:12;96907.03;;;21.74;69.53
75146;BME280;63641;46.526;24.612;2023-07-31T08:06:39;96909.00;;;21.73;69.85
75146;BME280;63641;46.526;24.612;2023-07-31T08:09:07;96900.66;;;21.69;69.56
75146;BME280;63641;46.526;24.612;2023-07-31T08:11:35;96868.78;;;21.49;69.56
75146;BME280;63641;46.526;24.612;2023-07-31T08:14:02;96921.28;;;21.79;69.33
75146;BME280;63641;46.526;24.612;2023-07-31T08:16:29;96903.50;;;21.73;69.33
75146;BME280;63641;46.526;24.612;2023-07-31T08:18:55;96895.63;;;21.75;69.72
75146;BME280;63641;46.526;24.612;2023-07-31T08:21:22;96894.25;;;21.85;69.36
75146;BME280;63641;46.526;24.612;2023-07-31T08:23:49;96894.75;;;21.90;69.15
75146;BME280;63641;46.526;24.612;2023-07-31T08:26:17;96902.13;;;22.06;69.19
75146;BME280;63641;46.526;24.612;2023-07-31T08:28:44;96910.06;;;22.11;69.03
75146;BME280;63641;46.526;24.612;2023-07-31T08:31:11;96896.75;;;22.13;68.76
75146;BME280;63641;46.526;24.612;2023-07-31T08:33:38;96894.50;;;22.18;68.70
75146;BME280;63641;46.526;24.612;2023-07-31T08:36:06;96886.22;;;22.18;68.50
75146;BME280;63641;46.526;24.612;2023-07-31T08:38:33;96891.59;;;22.34;68.12
75146;BME280;63641;46.526;24.612;2023-07-31T08:41:00;96882.13;;;22.32;67.10
75146;BME280;63641;46.526;24.612;2023-07-31T08:43:27;96905.72;;;22.56;66.92
75146;BME280;63641;46.526;24.612;2023-07-31T08:45:54;96898.38;;;22.63;66.46
75146;BME280;63641;46.526;24.612;2023-07-31T08:48:22;96896.22;;;22.76;66.21
75146;BME280;63641;46.526;24.612;2023-07-31T08:50:51;96894.66;;;22.79;65.92
75146;BME280;63641;46.526;24.612;2023-07-31T08:53:19;96896.84;;;22.93;65.55
75146;BME280;63641;46.526;24.612;2023-07-31T08:55:48;96863.84;;;22.73;65.32
75146;BME280;63641;46.526;24.612;2023-07-31T08:58:15;96893.88;;;23.05;64.90
75146;BME280;63641;46.526;24.612;2023-07-31T09:00:45;96897.06;;;23.07;64.49
75146;BME280;63641;46.526;24.612;2023-07-31T09:03:15;96896.72;;;23.12;64.43
75146;BME280;63641;46.526;24.612;2023-07-31T09:05:44;96900.66;;;23.11;64.49
75146;BME280;63641;46.526;24.612;2023-07-31T09:08:12;96890.41;;;23.11;64.70
75146;BME280;63641;46.526;24.612;2023-07-31T09:10:43;96909.66;;;23.34;64.54
75146;BME280;63641;46.526;24.612;2023-07-31T09:13:10;96906.56;;;23.39;64.15
75146;BME280;63641;46.526;24.612;2023-07-31T09:15:39;96921.78;;;23.60;64.59
75146;BME280;63641;46.526;24.612;2023-07-31T09:18:07;96890.25;;;23.61;64.24
75146;BME280;63641;46.526;24.612;2023-07-31T09:20:34;96896.28;;;23.70;63.85
75146;BME280;63641;46.526;24.612;2023-07-31T09:23:12;96903.94;;;23.84;63.68
75146;BME280;63641;46.526;24.612;2023-07-31T09:25:43;96910.34;;;23.92;63.70
75146;BME280;63641;46.526;24.612;2023-07-31T09:28:11;96907.59;;;23.92;63.26
75146;BME280;63641;46.526;24.612;2023-07-31T09:30:50;96898.03;;;23.85;62.69
75146;BME280;63641;46.526;24.612;2023-07-31T09:33:19;96872.19;;;23.67;62.43
75146;BME280;63641;46.526;24.612;2023-07-31T09:35:46;96889.81;;;23.93;61.86
75146;BME280;63641;46.526;24.612;2023-07-31T09:38:15;96888.78;;;24.08;61.52
75146;BME280;63641;46.526;24.612;2023-07-31T09:40:44;96866.13;;;23.92;60.80
75146;BME280;63641;46.526;24.612;2023-07-31T09:43:13;96899.66;;;24.27;60.97
75146;BME280;63641;46.526;24.612;2023-07-31T09:45:41;96890.28;;;24.39;60.38
75146;BME280;63641;46.526;24.612;2023-07-31T09:48:16;96884.03;;;24.46;59.84
75146;BME280;63641;46.526;24.612;2023-07-31T09:50:45;96867.50;;;24.53;59.66
75146;BME280;63641;46.526;24.612;2023-07-31T09:53:12;96879.91;;;24.80;59.14
75146;BME280;63641;46.526;24.612;2023-07-31T09:55:40;96864.94;;;24.89;58.34
75146;BME280;63641;46.526;24.612;2023-07-31T09:58:10;96873.06;;;25.15;58.25
75146;BME280;63641;46.526;24.612;2023-07-31T10:00:37;96867.22;;;25.38;57.54
75146;BME280;63641;46.526;24.612;2023-07-31T10:03:06;96841.94;;;25.54;56.92
75146;BME280;63641;46.526;24.612;2023-07-31T10:05:38;96856.28;;;25.92;56.48
75146;BME280;63641;46.526;24.612;2023-07-31T10:08:07;96828.59;;;25.95;55.61
75146;BME280;63641;46.526;24.612;2023-07-31T10:10:36;96850.38;;;26.36;55.76
75146;BME280;63641;46.526;24.612;2023-07-31T10:13:04;96862.69;;;26.67;55.26
75146;BME280;63641;46.526;24.612;2023-07-31T10:15:31;96861.91;;;26.70;54.62
75146;BME280;63641;46.526;24.612;2023-07-31T10:17:59;96858.72;;;26.61;54.26
75146;BME280;63641;46.526;24.612;2023-07-31T10:20:26;96861.09;;;26.38;54.45
75146;BME280;63641;46.526;24.612;2023-07-31T10:22:55;96870.97;;;25.99;55.55
75146;BME280;63641;46.526;24.612;2023-07-31T10:25:22;96868.91;;;25.71;56.12
75146;BME280;63641;46.526;24.612;2023-07-31T10:27:49;96876.72;;;25.41;57.28
75146;BME280;63641;46.526;24.612;2023-07-31T10:30:17;96871.78;;;25.05;58.54
75146;BME280;63641;46.526;24.612;2023-07-31T10:32:46;96873.19;;;24.81;59.63
75146;BME280;63641;46.526;24.612;2023-07-31T10:35:17;96881.00;;;24.65;60.15
75146;BME280;63641;46.526;24.612;2023-07-31T10:37:44;96872.53;;;24.44;60.91
75146;BME280;63641;46.526;24.612;2023-07-31T10:40:26;96884.38;;;24.41;61.17
75146;BME280;63641;46.526;24.612;2023-07-31T10:42:54;96871.25;;;24.30;61.37
75146;BME280;63641;46.526;24.612;2023-07-31T10:48:13;96870.41;;;24.30;61.86
75146;BME280;63641;46.526;24.612;2023-07-31T10:50:51;96860.97;;;24.31;62.70
75146;BME280;63641;46.526;24.612;2023-07-31T10:53:30;96857.03;;;24.35;63.21
75146;BME280;63641;46.526;24.612;2023-07-31T10:56:02;96852.78;;;24.42;63.31
75146;BME280;63641;46.526;24.612;2023-07-31T10:58:30;96848.47;;;24.48;63.51
75146;BME280;63641;46.526;24.612;2023-07-31T11:01:01;96839.34;;;24.44;63.25
75146;BME280;63641;46.526;24.612;2023-07-31T11:03:44;96841.81;;;24.52;63.46
75146;BME280;63641;46.526;24.612;2023-07-31T11:06:13;96830.78;;;24.59;63.67
75146;BME280;63641;46.526;24.612;2023-07-31T11:08:49;96819.25;;;24.50;63.54
75146;BME280;63641;46.526;24.612;2023-07-31T11:11:18;96845.91;;;24.76;63.61
75146;BME280;63641;46.526;24.612;2023-07-31T11:13:52;96839.22;;;24.85;62.63
75146;BME280;63641;46.526;24.612;2023-07-31T11:16:21;96845.56;;;24.89;62.50
75146;BME280;63641;46.526;24.612;2023-07-31T11:18:50;96844.81;;;24.95;62.76
75146;BME280;63641;46.526;24.612;2023-07-31T11:21:19;96820.31;;;24.94;61.96
75146;BME280;63641;46.526;24.612;2023-07-31T11:23:48;96819.66;;;25.18;61.94
75146;BME280;63641;46.526;24.612;2023-07-31T11:26:15;96829.66;;;25.44;61.17
75146;BME280;63641;46.526;24.612;2023-07-31T11:28:42;96826.88;;;25.51;60.55
75146;BME280;63641;46.526;24.612;2023-07-31T11:31:10;96822.53;;;25.54;60.37
75146;BME280;63641;46.526;24.612;2023-07-31T11:33:37;96835.63;;;25.57;60.31
75146;BME280;63641;46.526;24.612;2023-07-31T11:36:04;96837.97;;;25.55;60.41
75146;BME280;63641;46.526;24.612;2023-07-31T11:38:32;96838.78;;;25.56;59.76
75146;BME280;63641;46.526;24.612;2023-07-31T11:41:02;96822.94;;;25.49;59.90
75146;BME280;63641;46.526;24.612;2023-07-31T11:43:30;96802.72;;;25.38;59.74
75146;BME280;63641;46.526;24.612;2023-07-31T11:45:59;96816.59;;;25.41;59.37
75146;BME280;63641;46.526;24.612;2023-07-31T11:48:31;96806.31;;;25.45;59.45
75146;BME280;63641;46.526;24.612;2023-07-31T11:51:02;96809.44;;;25.37;59.63
75146;BME280;63641;46.526;24.612;2023-07-31T11:53:53;96804.66;;;25.26;59.76
75146;BME280;63641;46.526;24.612;2023-07-31T11:56:23;96807.81;;;25.28;59.41
75146;BME280;63641;46.526;24.612;2023-07-31T11:58:57;96794.38;;;25.23;59.90
75146;BME280;63641;46.526;24.612;2023-07-31T12:01:26;96790.84;;;25.30;60.12
75146;BME280;63641;46.526;24.612;2023-07-31T12:03:54;96788.88;;;25.34;59.89
75146;BME280;63641;46.526;24.612;2023-07-31T12:06:32;96760.75;;;25.32;59.52
75146;BME280;63641;46.526;24.612;2023-07-31T12:09:05;96791.31;;;25.64;58.88
75146;BME280;63641;46.526;24.612;2023-07-31T12:11:45;96789.75;;;25.77;58.29
75146;BME280;63641;46.526;24.612;2023-07-31T12:14:25;96796.13;;;25.96;58.20
75146;BME280;63641;46.526;24.612;2023-07-31T12:16:54;96795.75;;;26.12;58.42
75146;BME280;63641;46.526;24.612;2023-07-31T12:19:23;96783.84;;;26.18;57.84
75146;BME280;63641;46.526;24.612;2023-07-31T12:21:52;96800.44;;;26.43;56.79
75146;BME280;63641;46.526;24.612;2023-07-31T12:24:19;96789.38;;;26.58;56.95
75146;BME280;63641;46.526;24.612;2023-07-31T12:26:48;96788.13;;;26.80;56.34
75146;BME280;63641;46.526;24.612;2023-07-31T12:29:15;96769.09;;;26.79;55.44
75146;BME280;63641;46.526;24.612;2023-07-31T12:31:42;96778.16;;;26.97;55.23
75146;BME280;63641;46.526;24.612;2023-07-31T12:34:20;96783.28;;;27.13;54.41
75146;BME280;63641;46.526;24.612;2023-07-31T12:36:53;96778.13;;;27.11;54.05
75146;BME280;63641;46.526;24.612;2023-07-31T12:39:20;96783.28;;;27.13;54.16
75146;BME280;63641;46.526;24.612;2023-07-31T12:41:50;96774.97;;;26.98;53.44
75146;BME280;63641;46.526;24.612;2023-07-31T12:44:17;96784.13;;;26.92;53.33
75146;BME280;63641;46.526;24.612;2023-07-31T12:46:44;96760.47;;;26.55;53.90
75146;BME280;63641;46.526;24.612;2023-07-31T12:49:10;96759.69;;;26.30;54.68
75146;BME280;63641;46.526;24.612;2023-07-31T12:51:37;96762.06;;;26.17;55.34
75146;BME280;63641;46.526;24.612;2023-07-31T12:54:04;96775.53;;;26.00;56.05
75146;BME280;63641;46.526;24.612;2023-07-31T12:56:31;96773.13;;;25.67;56.93
75146;BME280;63641;46.526;24.612;2023-07-31T12:58:57;96770.28;;;25.42;57.78